Stations météo

réclame
Mon MeteoGroup
Großer Arber, Allemagne (10791): Température de l'air & dewpoint: 21.05.2018 07:00:00 - 27.05.2018 07:00:00 (CEST)Großer Arber, Allemagne (10791): Vitesse du vent & gusts: 21.05.2018 07:00:00 - 27.05.2018 07:00:00 (CEST)Großer Arber, Allemagne (10791): Direction du vent: 21.05.2018 07:00:00 - 27.05.2018 07:00:00 (CEST)Großer Arber, Allemagne (10791): visibility: 21.05.2018 07:00:00 - 27.05.2018 07:00:00 (CEST)Großer Arber, Allemagne (10791): Ensoleillement: 21.05.2018 07:00:00 - 27.05.2018 07:00:00 (CEST)Großer Arber, Allemagne (10791): Quantités de précipitations: 21.05.2018 07:00:00 - 27.05.2018 07:00:00 (CEST)
Date & Time tt [°C] td [°C] ff [km/h] ff [knt] fx [km/h] fx [knt] dd vv [km] sd [min] rr [mm]
27.05.2018 07:00:00 13,2 3,2 16 8 22 12 ESE 11 24 0,0
27.05.2018 06:00:00 12,2 2,9 17 9 21 12 ESE 11 0 0,0
27.05.2018 05:00:00 -6,5 6,8 55 30 21 11 E 24 0 0,0
27.05.2018 04:00:00 12,1 7,7 16 8 19 11 ESE 11 0 0,0
27.05.2018 03:00:00 11,9 9,0 17 9 22 12 SE 11 0 0,0
27.05.2018 02:00:00 12,1 8,9 16 8 21 11 SE 11 0 0,0
27.05.2018 01:00:00 12,5 9,0 17 9 21 12 SE 10 0 0,0
27.05.2018 00:00:00 12,6 9,1 17 9 20 11 ESE 11 0 0,0
26.05.2018 23:00:00 12,6 8,2 11 6 18 10 E 11 0 0,0
26.05.2018 22:00:00 12,8 7,6 14 7 18 10 E 11 0 0,0
26.05.2018 21:00:00 12,8 8,2 14 7 17 9 E 11 0 0,0
26.05.2018 20:00:00 13,6 8,8 12 7 17 9 E 10 2 0,0
26.05.2018 19:00:00 14,0 8,9 10 5 17 9 ENE 11 51 0,0
26.05.2018 18:00:00 13,4 9,3 13 7 18 10 E 10 0 0,1
26.05.2018 17:00:00 14,3 10,0 6 3 18 10 E 11 0 0,0
26.05.2018 16:00:00 15,0 8,9 7 4 13 7 E 10 0 0,0
26.05.2018 15:00:00 15,0 9,0 7 4 22 12 E 11 22 0,0
26.05.2018 14:00:00 15,0 8,8 11 6 16 8 SE 11 0 0,0
26.05.2018 13:00:00 14,5 8,0 9 5 23 12 E 11 30 0,0
26.05.2018 12:00:00 14,8 8,3 8 4 20 11 ENE 11 31 0,0
26.05.2018 11:00:00 15,3 9,7 12 6 23 12 ENE 11 60 0,0
26.05.2018 10:00:00 13,6 7,7 11 6 24 13 ESE 11 60 0,0
26.05.2018 09:00:00 12,4 8,0 16 9 28 15 ESE 11 60 0,0
26.05.2018 08:00:00 11,4 7,0 20 11 27 15 ESE 11 60 0,0
26.05.2018 07:00:00 10,2 7,1 18 10 29 16 E 11 24 0,0
26.05.2018 06:00:00 9,5 7,1 18 10 26 14 E 11 0 0,0
26.05.2018 05:00:00 9,7 7,3 19 10 28 15 ESE 11 0 0,0
26.05.2018 04:00:00 10,1 6,6 25 14 30 16 ESE 11 0 0,0
26.05.2018 03:00:00 9,6 6,5 25 14 33 18 SE 11 0 0,0
26.05.2018 02:00:00 9,1 7,8 21 11 24 13 SE 10 0 0,0
26.05.2018 01:00:00 9,0 8,0 19 10 23 13 SE 10 0 0,0
26.05.2018 00:00:00 9,1 8,5 18 10 25 13 SE 11 0 0,0
25.05.2018 23:00:00 9,4 8,3 22 12 24 13 SE 11 0 0,0
25.05.2018 22:00:00 9,6 9,4 14 8 17 9 SE 0,3 0 0,0
25.05.2018 21:00:00 9,4 8,9 12 7 13 7 E 11 0 0,0
25.05.2018 20:00:00 9,9 9,1 6 3 8 4 E 11 0 0,0
25.05.2018 19:00:00 10,5 8,6 6 3 10 6 E 10 14 0,0
25.05.2018 18:00:00 10,1 8,5 8 4 14 8 E 10 0 0,0
25.05.2018 17:00:00 11,2 9,0 5 3 14 7 ENE 11 4 0,0
25.05.2018 16:00:00 9,9 8,9 11 6 21 11 ENE 1,6 1 0,0
25.05.2018 15:00:00 10,1 9,8 14 8 22 12 ENE 0,1 0 0,0
25.05.2018 14:00:00 10,4 9,9 13 7 25 14 NE 0,1 0 0,0
25.05.2018 13:00:00 9,8 9,6 16 9 21 12 NE 0,1 0 5,7
25.05.2018 12:00:00 9,7 9,2 8 4 18 10 NNE 0,1 0 1,2
25.05.2018 11:00:00 10,8 10,0 9 5 16 9 N 0,1 7 0,0
25.05.2018 10:00:00 11,6 9,9 6 4 10 6 N 10 1 0,0
25.05.2018 09:00:00 11,1 9,6 5 3 9 5 N 1,9 0 0,0
25.05.2018 08:00:00 10,5 9,3 4 2 9 5 NW 10 0 0,0
25.05.2018 07:00:00 9,4 8,8 8 4 12 7 S 11 0 0,0
25.05.2018 06:00:00 9,6 8,7 13 7 16 9 S 10 0 0,0
25.05.2018 05:00:00 9,6 8,6 13 7 15 8 S 10 0 0,0
25.05.2018 04:00:00 9,9 8,6 12 7 22 12 S 11 0 0,0
25.05.2018 03:00:00 9,7 8,0 18 10 25 14 S 11 0 0,0
25.05.2018 02:00:00 9,9 8,5 22 12 30 16 SSE 11 0 0,0
25.05.2018 01:00:00 9,8 8,2 24 13 34 18 S 11 0 0,0
25.05.2018 00:00:00 10,1 8,3 23 13 31 17 SE 10 0 0,0
24.05.2018 23:00:00 10,3 9,9 20 11 29 16 SSE 11 0 0,0
24.05.2018 22:00:00 10,1 8,6 24 13 31 17 SE 11 0 0,0
24.05.2018 21:00:00 10,2 8,3 23 12 26 14 ESE 11 0 0,0
24.05.2018 20:00:00 9,6 8,9 20 11 27 14 ESE 0,4 0 0,1
24.05.2018 19:00:00 9,9 9,2 17 9 31 17 E 11 0 1,0
24.05.2018 18:00:00 9,4 9,0 25 13 32 17 ESE 11 0 2,5
24.05.2018 17:00:00 9,3 8,3 18 10 37 20 E 11 0 5,0
24.05.2018 16:00:00 11,4 11,1 10 5 25 13 SSW 0,8 0 0,0
24.05.2018 15:00:00 10,2 9,8 21 12 44 24 SE 11 0 3,5
24.05.2018 14:00:00 9,2 9,0 26 14 40 21 ESE 0,5 0 12,0
24.05.2018 13:00:00 12,2 11,3 8 4 40 22 SE 11 6 1,0
24.05.2018 12:00:00 12,6 10,3 19 10 34 18 SE 11 5 0,0
24.05.2018 11:00:00 11,7 10,9 19 11 32 17 SE 11 0 0,0
24.05.2018 10:00:00 11,2 10,8 23 12 35 19 SSE 11 0 0,0
24.05.2018 09:00:00 10,7 10,4 27 15 36 19 SSE 9 0 0,0
24.05.2018 08:00:00 10,6 10,5 22 12 32 17 SE 0,1 0 0,0
24.05.2018 07:00:00 10,1 9,9 23 12 32 17 ESE 0,1 0 0,0
24.05.2018 06:00:00 9,9 9,8 19 11 31 17 E 0,1 0 0,0
24.05.2018 05:00:00 9,9 9,8 21 12 35 19 E 0,1 0 0,0
24.05.2018 04:00:00 9,7 9,6 19 10 40 21 E 0,1 0 0,0
24.05.2018 03:00:00 9,5 9,4 20 11 36 20 ENE 0,1 0 0,1
24.05.2018 02:00:00 10,2 9,8 18 10 29 15 E 1,4 0 2,1
24.05.2018 01:00:00 11,5 9,0 17 9 31 17 ESE 10 0 0,0
24.05.2018 00:00:00 12,0 7,7 22 12 31 17 SE 10 0 0,0
23.05.2018 23:00:00 12,1 5,7 23 13 32 18 SE 11 0 0,0
23.05.2018 22:00:00 11,7 7,9 18 10 26 14 ESE 11 0 0,0
23.05.2018 21:00:00 12,4 8,1 19 10 31 17 ESE 11 0 0,0
23.05.2018 20:00:00 12,9 6,2 19 10 25 13 SE 10 2 0,0
23.05.2018 19:00:00 12,2 8,0 16 9 26 14 ESE 11 12 0,2
23.05.2018 18:00:00 12,6 9,7 14 8 25 14 E 11 1 0,0
23.05.2018 17:00:00 11,9 8,9 17 9 28 15 NE 11 4 0,9
23.05.2018 16:00:00 12,9 10,6 14 7 23 12 NE 11 2 0,0
23.05.2018 15:00:00 12,6 10,2 12 7 22 12 NE 11 3 0,0
23.05.2018 14:00:00 14,1 9,7 6 3 18 10 ESE 11 9 0,0
23.05.2018 13:00:00 13,9 10,9 6 4 16 9 N 10 10 0,1
23.05.2018 12:00:00 13,3 8,5 7 4 15 8 ENE 11 3 0,0
23.05.2018 11:00:00 14,1 9,0 8 4 22 12 E 11 26 0,0
23.05.2018 10:00:00 13,2 8,1 13 7 23 13 ENE 11 56 0,0
23.05.2018 09:00:00 12,4 7,8 14 8 25 13 NE 11 59 0,0
23.05.2018 08:00:00 12,5 7,3 15 8 24 13 NE 11 60 0,0
23.05.2018 07:00:00 11,5 5,9 14 7 19 11 NE 11 25 0,0
23.05.2018 06:00:00 10,7 4,9 8 4 14 8 ENE 11 0 0,0
23.05.2018 05:00:00 10,0 4,9 11 6 15 8 N 11 0 0,0
23.05.2018 04:00:00 9,9 6,1 10 5 12 6 NW 11 0 0,0
23.05.2018 03:00:00 10,9 4,2 9 5 10 6 SW 11 0 0,0
23.05.2018 02:00:00 11,0 4,1 8 4 11 6 NNE 10 0 0,0
23.05.2018 01:00:00 12,1 3,6 11 6 16 9 ESE 11 0 0,0
23.05.2018 00:00:00 11,6 3,3 15 8 24 13 SE 11 0 0,0
22.05.2018 23:00:00 10,6 7,3 20 11 25 13 SE 11 0 0,0
22.05.2018 22:00:00 10,8 7,2 22 12 28 15 SE 11 0 0,0
22.05.2018 21:00:00 11,6 6,4 12 6 16 9 E 11 17 0,0
22.05.2018 20:00:00 12,4 5,6 11 6 16 8 ESE 11 8 0,0
22.05.2018 19:00:00 13,4 7,4 11 6 22 12 E 11 52 0,0
22.05.2018 18:00:00 13,5 7,7 15 8 21 11 ESE 11 55 0,0
22.05.2018 17:00:00 12,8 6,5 11 6 16 9 NE 11 0 0,0
22.05.2018 16:00:00 12,7 6,4 9 5 29 15 ENE 11 1 0,0
22.05.2018 15:00:00 14,0 6,2 12 7 20 11 NE 11 2 0,0
22.05.2018 14:00:00 15,6 6,2 7 4 18 10 NNW 11 24 0,0
22.05.2018 13:00:00 15,3 5,3 11 6 21 11 NNW 10 42 0,0
22.05.2018 12:00:00 13,9 3,3 9 5 23 12 N 11 48 0,0
22.05.2018 11:00:00 14,1 3,3 13 7 22 12 N 11 60 0,0
22.05.2018 10:00:00 12,8 3,9 10 5 20 11 NE 11 60 0,0
22.05.2018 09:00:00 12,0 4,7 12 7 20 11 NE 11 60 0,0
22.05.2018 08:00:00 11,2 4,0 10 5 15 8 NE 11 60 0,0
22.05.2018 07:00:00 10,8 3,1 10 5 13 7 N 11 23 0,0
22.05.2018 06:00:00 9,4 3,7 8 4 10 6 NW 11 0 0,0
22.05.2018 05:00:00 9,7 2,4 0 0 9 5 N 11 0 0,0
22.05.2018 04:00:00 9,7 4,6 9 5 18 10 SE 11 0 0,0
22.05.2018 03:00:00 9,4 3,9 16 9 21 11 SE 10 0 0,0
22.05.2018 02:00:00 9,3 3,8 20 11 27 14 SE 11 0 0,0
22.05.2018 01:00:00 9,0 2,8 18 10 26 14 ESE 11 0 0,0
22.05.2018 00:00:00 8,0 4,0 19 10 34 18 E 11 0 0,0
21.05.2018 23:00:00 8,5 4,5 19 11 30 16 E 11 0 0,0
21.05.2018 22:00:00 9,2 5,5 18 10 31 17 E 10 0 0,0
21.05.2018 21:00:00 9,8 5,6 21 11 31 17 E 10 26 0,0
21.05.2018 20:00:00 10,5 5,8 17 9 29 16 E 11 8 0,0
21.05.2018 19:00:00 11,1 5,9 13 7 23 13 ENE 10 0 0,0
21.05.2018 18:00:00 11,2 6,3 17 9 29 16 E 10 0 0,0
21.05.2018 17:00:00 11,2 6,1 16 9 26 14 E 11 0 0,4
21.05.2018 16:00:00 10,8 7,2 13 7 35 19 E 11 25 1,5
21.05.2018 15:00:00 14,1 7,0 15 8 29 15 E 10 31 0,0
21.05.2018 14:00:00 13,7 6,8 12 6 24 13 E 11 16 0,0
21.05.2018 13:00:00 12,1 6,4 13 7 29 15 E 11 16 0,0
21.05.2018 12:00:00 11,8 6,5 13 7 24 13 ENE 11 13 0,0
21.05.2018 11:00:00 12,0 5,8 13 7 33 18 ENE 11 57 0,0
21.05.2018 10:00:00 12,7 5,7 16 9 38 20 ESE 11 60 0,0
21.05.2018 09:00:00 10,4 4,6 24 13 44 24 ESE 11 60 0,0
21.05.2018 08:00:00 8,8 3,2 26 14 41 22 ESE 11 60 0,0
21.05.2018 07:00:00 7,6 2,5 23 12 37 20 ESE 11 25 0,0

tt = Température de l'air
td = dewpoint
ff = Vitesse du vent
fx = gusts
dd = Direction du vent
vv = visibility
sd = Ensoleillement
rr = Quantités de précipitations

stations d'obs. à proximité